createdAt,value
2018-07-01T00:01:00.062Z,63.20
2018-07-01T00:03:33.095Z,62.60
2018-07-01T00:06:06.139Z,62.70
2018-07-01T00:08:39.164Z,62.80
2018-07-01T00:11:12.170Z,63.20
2018-07-01T00:13:45.194Z,63.30
2018-07-01T00:16:18.195Z,63.40
2018-07-01T00:18:51.263Z,63.80
2018-07-01T00:21:24.278Z,63.80
2018-07-01T00:23:57.307Z,64.20
2018-07-01T00:26:30.289Z,63.90
2018-07-01T00:29:03.345Z,63.80
2018-07-01T00:31:36.361Z,63.20
2018-07-01T00:34:09.550Z,63.70
2018-07-01T00:36:42.585Z,63.60
2018-07-01T00:39:15.625Z,63.90
2018-07-01T00:41:48.655Z,63.90
2018-07-01T00:44:21.726Z,64.00
2018-07-01T00:46:54.749Z,63.70
2018-07-01T00:49:27.778Z,63.90
2018-07-01T00:52:00.796Z,64.10
2018-07-01T00:54:33.813Z,64.40
2018-07-01T00:57:06.823Z,64.40
2018-07-01T00:59:39.826Z,64.60
2018-07-01T01:02:12.842Z,65.80
2018-07-01T01:04:45.879Z,64.50
2018-07-01T01:07:18.950Z,64.80
2018-07-01T01:09:51.978Z,64.80
2018-07-01T01:12:25.046Z,64.40
2018-07-01T01:14:58.091Z,64.60
2018-07-01T01:17:31.174Z,65.10
2018-07-01T01:20:04.693Z,65.10
2018-07-01T01:22:37.770Z,65.40
2018-07-01T01:25:10.795Z,65.20
2018-07-01T01:27:43.844Z,65.50
2018-07-01T01:30:16.903Z,66.10
2018-07-01T01:32:49.991Z,66.30
2018-07-01T01:35:23.044Z,66.00
2018-07-01T01:37:56.114Z,65.90
2018-07-01T01:40:33.294Z,65.90
2018-07-01T01:43:10.792Z,66.00
2018-07-01T01:46:03.823Z,65.80
2018-07-01T01:48:42.444Z,66.50
2018-07-01T01:51:22.396Z,66.50
2018-07-01T01:54:14.283Z,66.20
2018-07-01T01:56:51.654Z,65.80
2018-07-01T01:59:45.916Z,65.50
2018-07-01T02:03:27.648Z,65.60
2018-07-01T02:06:10.081Z,66.00
2018-07-01T02:09:17.409Z,66.00
2018-07-01T02:11:52.949Z,65.60
2018-07-01T02:14:29.532Z,66.00
2018-07-01T02:17:04.932Z,66.10
2018-07-01T02:19:37.958Z,66.20
2018-07-01T02:22:14.030Z,66.10
2018-07-01T02:24:48.698Z,66.20
2018-07-01T02:27:21.764Z,66.30
2018-07-01T02:29:55.723Z,66.40
2018-07-01T02:32:28.767Z,66.80
2018-07-01T02:35:01.767Z,67.00
2018-07-01T02:37:34.836Z,68.00
2018-07-01T02:40:08.029Z,67.40
2018-07-01T02:42:41.071Z,67.80
2018-07-01T02:45:14.087Z,67.90
2018-07-01T02:47:47.326Z,67.90
2018-07-01T02:50:20.374Z,67.70
2018-07-01T02:52:53.646Z,67.50
2018-07-01T02:55:26.694Z,67.40
2018-07-01T02:57:59.743Z,67.40
2018-07-01T03:00:32.778Z,67.40
2018-07-01T03:03:05.831Z,67.20
2018-07-01T03:05:38.899Z,67.40
2018-07-01T03:08:11.934Z,67.20
2018-07-01T03:10:45.024Z,67.00
2018-07-01T03:13:18.140Z,67.00
2018-07-01T03:15:51.240Z,67.50
2018-07-01T03:18:24.311Z,68.10
2018-07-01T03:20:57.379Z,68.30
2018-07-01T03:23:30.417Z,68.70
2018-07-01T03:26:03.784Z,68.90
2018-07-01T03:28:36.861Z,69.10
2018-07-01T03:31:09.891Z,70.10
2018-07-01T03:33:42.934Z,69.20
2018-07-01T03:36:15.975Z,68.90
2018-07-01T03:38:49.013Z,68.90
2018-07-01T03:41:22.031Z,68.90
2018-07-01T03:43:55.074Z,69.30
2018-07-01T03:46:29.752Z,69.50
2018-07-01T03:49:02.830Z,69.70
2018-07-01T03:51:35.848Z,69.70
2018-07-01T03:54:08.852Z,70.00
2018-07-01T03:56:41.886Z,70.40
2018-07-01T03:59:14.992Z,71.10
2018-07-01T04:01:48.039Z,70.50
2018-07-01T04:04:21.114Z,70.80
2018-07-01T04:06:54.233Z,71.00
2018-07-01T04:09:34.623Z,71.10
2018-07-01T04:12:07.659Z,71.50
2018-07-01T04:14:40.671Z,71.40
2018-07-01T04:17:19.069Z,71.70
2018-07-01T04:19:52.175Z,72.40
2018-07-01T04:22:30.112Z,72.80
2018-07-01T04:25:04.008Z,72.80
2018-07-01T04:27:37.099Z,73.30
2018-07-01T04:30:10.146Z,73.40
2018-07-01T04:32:44.567Z,76.20
2018-07-01T04:35:17.618Z,78.20
2018-07-01T04:37:50.636Z,79.60
2018-07-01T04:40:23.655Z,80.00
2018-07-01T04:42:56.682Z,81.00
2018-07-01T04:45:33.119Z,81.30
2018-07-01T04:48:06.135Z,83.10
2018-07-01T04:50:39.151Z,83.90
2018-07-01T04:53:12.158Z,85.40
2018-07-01T04:55:45.175Z,85.00
2018-07-01T04:58:18.192Z,85.50
2018-07-01T05:00:51.219Z,86.50
2018-07-01T05:03:24.260Z,87.10
2018-07-01T05:05:57.327Z,88.00
2018-07-01T05:08:30.371Z,88.10
2018-07-01T05:11:03.439Z,88.50
2018-07-01T05:13:36.482Z,89.30
2018-07-01T05:16:09.559Z,90.80
2018-07-01T05:18:42.591Z,91.10
2018-07-01T05:21:15.646Z,90.50
2018-07-01T05:23:48.687Z,89.30
2018-07-01T05:26:21.762Z,89.90
2018-07-01T05:28:54.849Z,89.70
2018-07-01T05:31:27.911Z,90.10
2018-07-01T05:34:01.010Z,89.70
2018-07-01T05:36:34.044Z,90.80
2018-07-01T05:39:08.415Z,90.30
2018-07-01T05:41:41.459Z,90.20
2018-07-01T05:44:14.500Z,89.70
2018-07-01T05:46:47.525Z,90.80
2018-07-01T05:49:20.573Z,89.40
2018-07-01T05:51:53.580Z,90.30
2018-07-01T05:54:26.605Z,90.20
2018-07-01T05:57:00.985Z,88.60
2018-07-01T05:59:34.547Z,87.70
2018-07-01T06:02:07.683Z,88.60
2018-07-01T06:04:40.711Z,87.00
2018-07-01T06:07:13.738Z,85.50
2018-07-01T06:09:46.767Z,85.70
2018-07-01T06:12:19.840Z,84.60
2018-07-01T06:14:52.896Z,85.90
2018-07-01T06:17:25.927Z,87.50
2018-07-01T06:19:58.953Z,83.60
2018-07-01T06:22:32.005Z,84.40
2018-07-01T06:25:05.157Z,83.70
2018-07-01T06:27:38.198Z,83.50
2018-07-01T06:30:11.315Z,83.50
2018-07-01T06:35:17.204Z,82.20
2018-07-01T06:37:50.239Z,81.80
2018-07-01T06:40:23.246Z,80.70
2018-07-01T06:42:56.295Z,81.00
2018-07-01T06:45:29.390Z,80.00
2018-07-01T06:48:02.444Z,77.60
2018-07-01T06:50:35.480Z,77.10
2018-07-01T06:53:08.604Z,76.70
2018-07-01T06:55:41.706Z,76.50
2018-07-01T06:58:14.785Z,77.80
2018-07-01T07:00:47.811Z,76.70
2018-07-01T07:03:20.907Z,75.20
2018-07-01T07:05:53.920Z,76.20
2018-07-01T07:08:26.956Z,75.30
2018-07-01T07:10:59.970Z,74.20
2018-07-01T07:13:33.020Z,73.80
2018-07-01T07:16:06.024Z,73.70
2018-07-01T07:18:39.088Z,71.20
2018-07-01T07:21:12.262Z,72.00
2018-07-01T07:23:45.391Z,73.40
2018-07-01T07:26:18.625Z,73.40
2018-07-01T07:28:51.699Z,67.70
2018-07-01T07:31:24.767Z,65.80
2018-07-01T07:33:57.966Z,69.20
2018-07-01T07:36:31.027Z,68.20
2018-07-01T07:39:06.848Z,61.00
2018-07-01T07:41:40.355Z,62.70
2018-07-01T07:44:13.401Z,65.20
2018-07-01T07:46:46.442Z,63.00
2018-07-01T07:49:19.567Z,61.60
2018-07-01T07:51:52.666Z,62.80
2018-07-01T07:54:25.985Z,63.70
2018-07-01T07:56:59.015Z,63.00
2018-07-01T07:59:32.090Z,60.70
2018-07-01T08:02:05.325Z,61.30
2018-07-01T08:04:38.367Z,59.30
2018-07-01T08:07:12.115Z,57.70
2018-07-01T08:09:45.199Z,60.20
2018-07-01T08:12:18.222Z,59.20
2018-07-01T08:14:51.272Z,58.80
2018-07-01T08:17:24.432Z,54.90
2018-07-01T08:19:57.487Z,57.20
2018-07-01T08:22:30.491Z,57.60
2018-07-01T08:25:03.590Z,57.60
2018-07-01T08:27:36.633Z,57.80
2018-07-01T08:30:09.663Z,52.00
2018-07-01T08:32:42.740Z,51.10
2018-07-01T08:35:15.904Z,51.90
2018-07-01T08:37:48.989Z,53.90
2018-07-01T08:40:22.116Z,52.00
2018-07-01T08:42:55.110Z,54.30
2018-07-01T08:45:28.187Z,55.30
2018-07-01T08:50:34.222Z,56.30
2018-07-01T08:53:07.262Z,55.20
2018-07-01T08:55:40.314Z,55.00
2018-07-01T08:58:13.348Z,55.30
2018-07-01T09:00:46.422Z,53.80
2018-07-01T09:03:19.459Z,51.70
2018-07-01T09:05:52.555Z,51.80
2018-07-01T09:08:25.689Z,53.10
2018-07-01T09:10:58.756Z,52.30
2018-07-01T09:13:31.841Z,53.60
2018-07-01T09:16:05.029Z,54.50
2018-07-01T09:18:38.120Z,53.50
2018-07-01T09:21:11.200Z,50.10
2018-07-01T09:23:44.260Z,51.20
2018-07-01T09:26:17.332Z,49.40
2018-07-01T09:28:50.457Z,49.90
2018-07-01T09:31:23.461Z,42.50
2018-07-01T09:33:56.529Z,45.40
2018-07-01T09:36:29.589Z,42.90
2018-07-01T09:39:02.655Z,45.10
2018-07-01T09:41:35.786Z,47.30
2018-07-01T09:44:08.850Z,48.50
2018-07-01T09:46:41.945Z,47.20
2018-07-01T09:49:15.042Z,45.30
2018-07-01T09:51:48.160Z,47.00
2018-07-01T09:54:21.301Z,46.50
2018-07-01T09:56:54.342Z,46.50
2018-07-01T09:59:27.348Z,46.10
2018-07-01T10:02:00.480Z,46.80
2018-07-01T10:04:33.540Z,46.50
2018-07-01T10:07:06.727Z,47.20
2018-07-01T10:09:39.788Z,46.20
2018-07-01T10:12:12.840Z,45.50
2018-07-01T10:14:46.103Z,42.10
2018-07-01T10:17:19.154Z,44.90
2018-07-01T10:19:52.146Z,41.70
2018-07-01T10:22:25.138Z,41.60
2018-07-01T10:24:58.127Z,41.80
2018-07-01T10:27:31.142Z,42.20
2018-07-01T10:30:04.547Z,43.70
2018-07-01T10:32:38.624Z,41.80
2018-07-01T10:35:11.618Z,40.60
2018-07-01T10:37:44.627Z,41.90
2018-07-01T10:40:17.643Z,42.30
2018-07-01T10:42:50.655Z,42.50
2018-07-01T10:45:23.642Z,42.10
2018-07-01T10:47:56.696Z,43.30
2018-07-01T10:50:29.714Z,42.20
2018-07-01T10:53:02.732Z,40.80
2018-07-01T10:55:35.713Z,42.00
2018-07-01T10:58:08.735Z,42.40
2018-07-01T11:00:41.726Z,41.00
2018-07-01T11:03:14.728Z,39.20
2018-07-01T11:05:47.711Z,42.00
2018-07-01T11:08:20.707Z,41.30
2018-07-01T11:10:53.701Z,39.60
2018-07-01T11:13:26.727Z,41.30
2018-07-01T11:16:00.016Z,40.50
2018-07-01T11:18:33.025Z,41.50
2018-07-01T11:21:06.071Z,41.80
2018-07-01T11:23:39.066Z,42.00
2018-07-01T11:26:12.074Z,39.80
2018-07-01T11:28:45.163Z,40.80
2018-07-01T11:31:18.243Z,40.00
2018-07-01T11:33:51.270Z,39.00
2018-07-01T11:36:24.711Z,40.10
2018-07-01T11:38:57.718Z,40.10
2018-07-01T11:41:30.710Z,40.10
2018-07-01T11:44:03.731Z,41.10
2018-07-01T11:46:36.768Z,42.60
2018-07-01T11:49:09.788Z,40.70
2018-07-01T11:51:42.773Z,43.10
2018-07-01T11:54:16.636Z,42.90
2018-07-01T11:56:49.630Z,42.50
2018-07-01T11:59:22.672Z,44.20
2018-07-01T12:01:55.694Z,42.80
2018-07-01T12:04:28.712Z,45.70
2018-07-01T12:07:01.732Z,43.10
2018-07-01T12:09:34.815Z,43.30
2018-07-01T12:12:07.879Z,42.70
2018-07-01T12:14:40.911Z,43.40
2018-07-01T12:17:13.943Z,41.70
2018-07-01T12:19:46.962Z,42.80
2018-07-01T12:22:20.107Z,43.90
2018-07-01T12:24:53.291Z,44.50
2018-07-01T12:27:26.431Z,44.90
2018-07-01T12:29:59.480Z,44.50
2018-07-01T12:32:32.503Z,43.00
2018-07-01T12:35:05.767Z,44.00
2018-07-01T12:40:11.879Z,44.80
2018-07-01T12:42:44.920Z,44.50
2018-07-01T12:45:17.975Z,44.40
2018-07-01T12:47:51.044Z,43.80
2018-07-01T12:50:24.237Z,44.90
2018-07-01T12:52:57.609Z,46.20
2018-07-01T12:55:30.818Z,47.50
2018-07-01T12:58:04.149Z,49.30
2018-07-01T13:00:37.271Z,48.80
2018-07-01T13:03:10.399Z,50.40
2018-07-01T13:05:43.520Z,49.20
2018-07-01T13:08:16.711Z,48.00
2018-07-01T13:10:49.778Z,47.20
2018-07-01T13:13:23.927Z,46.50
2018-07-01T13:15:57.086Z,45.50
2018-07-01T13:18:31.884Z,45.90
2018-07-01T13:21:05.066Z,45.60
2018-07-01T13:23:38.119Z,45.60
2018-07-01T13:26:11.155Z,45.00
2018-07-01T13:31:16.992Z,44.90
2018-07-01T13:33:50.111Z,45.50
2018-07-01T13:36:23.196Z,46.70
2018-07-01T13:38:56.415Z,45.40
2018-07-01T13:41:29.449Z,46.40
2018-07-01T13:44:02.635Z,46.10
2018-07-01T13:46:35.643Z,46.70
2018-07-01T13:49:08.683Z,47.30
2018-07-01T13:51:41.762Z,47.60
2018-07-01T13:54:14.806Z,47.80
2018-07-01T13:56:47.926Z,47.40
2018-07-01T13:59:20.974Z,48.20
2018-07-01T14:01:54.800Z,47.40
2018-07-01T14:04:27.861Z,47.50
2018-07-01T14:07:00.907Z,46.70
2018-07-01T14:09:33.979Z,47.30
2018-07-01T14:12:07.059Z,46.20
2018-07-01T14:14:40.072Z,43.80
2018-07-01T14:17:13.087Z,44.50
2018-07-01T14:19:46.103Z,45.20
2018-07-01T14:22:19.250Z,44.90
2018-07-01T14:24:52.360Z,45.70
2018-07-01T14:27:25.633Z,45.70
2018-07-01T14:29:58.688Z,46.60
2018-07-01T14:32:31.759Z,47.10
2018-07-01T14:35:04.838Z,46.50
2018-07-01T14:37:38.140Z,47.60
2018-07-01T14:40:11.224Z,47.10
2018-07-01T14:42:44.277Z,44.60
2018-07-01T14:45:17.304Z,45.00
2018-07-01T14:47:50.373Z,46.00
2018-07-01T14:50:23.408Z,44.40
2018-07-01T14:52:56.526Z,44.60
2018-07-01T14:55:29.566Z,43.50
2018-07-01T14:58:02.639Z,43.90
2018-07-01T15:00:35.681Z,44.90
2018-07-01T15:03:08.755Z,45.50
2018-07-01T15:05:41.806Z,44.30
2018-07-01T15:08:14.895Z,43.30
2018-07-01T15:10:47.915Z,43.50
2018-07-01T15:13:20.964Z,43.70
2018-07-01T15:15:53.976Z,44.80
2018-07-01T15:18:27.018Z,43.20
2018-07-01T15:21:00.027Z,42.10
2018-07-01T15:23:33.083Z,42.50
2018-07-01T15:26:06.120Z,41.00
2018-07-01T15:28:39.195Z,41.40
2018-07-01T15:31:12.278Z,41.40
2018-07-01T15:33:45.339Z,40.50
2018-07-01T15:36:18.388Z,39.50
2018-07-01T15:38:51.433Z,38.30
2018-07-01T15:41:24.486Z,38.30
2018-07-01T15:43:57.541Z,39.20
2018-07-01T15:46:30.539Z,39.00
2018-07-01T15:49:03.603Z,38.20
2018-07-01T15:51:36.623Z,38.00
2018-07-01T15:54:09.657Z,38.00
2018-07-01T15:56:42.654Z,39.20
2018-07-01T15:59:15.670Z,38.00
2018-07-01T16:01:48.663Z,38.80
2018-07-01T16:04:21.693Z,39.20
2018-07-01T16:06:54.801Z,38.00
2018-07-01T16:12:00.740Z,39.20
2018-07-01T16:14:33.768Z,38.60
2018-07-01T16:17:06.806Z,37.80
2018-07-01T16:19:39.932Z,39.60
2018-07-01T16:22:12.951Z,41.10
2018-07-01T16:24:51.582Z,40.60
2018-07-01T16:27:40.971Z,40.80
2018-07-01T16:30:13.991Z,40.10
2018-07-01T16:32:47.022Z,41.00
2018-07-01T16:35:20.047Z,40.60
2018-07-01T16:37:53.051Z,39.80
2018-07-01T16:40:26.090Z,41.00
2018-07-01T16:42:59.090Z,41.60
2018-07-01T16:45:32.135Z,41.40
2018-07-01T16:48:05.146Z,41.50
2018-07-01T16:50:38.179Z,41.30
2018-07-01T16:53:11.190Z,41.00
2018-07-01T16:55:44.259Z,40.10
2018-07-01T16:58:17.307Z,41.50
2018-07-01T17:00:50.325Z,42.50
2018-07-01T17:03:23.318Z,42.30
2018-07-01T17:05:56.598Z,43.30
2018-07-01T17:08:29.607Z,42.90
2018-07-01T17:11:02.657Z,42.10
2018-07-01T17:13:43.042Z,42.50
2018-07-01T17:16:16.052Z,41.90
2018-07-01T17:18:49.098Z,41.80
2018-07-01T17:21:22.208Z,41.70
2018-07-01T17:23:55.223Z,41.70
2018-07-01T17:26:28.291Z,42.30
2018-07-01T17:29:01.345Z,42.90
2018-07-01T17:31:39.839Z,43.10
2018-07-01T17:34:12.858Z,43.10
2018-07-01T17:36:45.933Z,42.20
2018-07-01T17:39:18.964Z,42.50
2018-07-01T17:41:52.018Z,43.00
2018-07-01T17:44:25.079Z,42.50
2018-07-01T17:46:58.104Z,42.00
2018-07-01T17:49:31.131Z,42.50
2018-07-01T17:52:04.197Z,41.80
2018-07-01T17:54:37.345Z,42.00
2018-07-01T17:57:10.398Z,42.20
2018-07-01T17:59:43.448Z,42.30
2018-07-01T18:02:16.500Z,42.00
2018-07-01T18:04:49.536Z,41.70
2018-07-01T18:07:22.558Z,42.50
2018-07-01T18:09:55.779Z,42.30
2018-07-01T18:12:28.855Z,42.60
2018-07-01T18:15:01.882Z,42.60
2018-07-01T18:17:34.939Z,41.80
2018-07-01T18:20:07.975Z,41.30
2018-07-01T18:23:09.758Z,41.80
2018-07-01T18:25:14.068Z,41.50
2018-07-01T18:27:52.583Z,41.10
2018-07-01T18:30:20.197Z,40.30
2018-07-01T18:32:53.214Z,40.60
2018-07-01T18:35:26.501Z,41.70
2018-07-01T18:37:59.594Z,41.60
2018-07-01T18:40:32.862Z,42.20
2018-07-01T18:43:05.973Z,41.90
2018-07-01T18:45:39.282Z,42.40
2018-07-01T18:48:12.584Z,43.00
2018-07-01T18:50:45.742Z,43.80
2018-07-01T18:53:18.837Z,43.50
2018-07-01T18:55:52.144Z,43.60
2018-07-01T18:58:25.462Z,44.50
2018-07-01T19:00:58.461Z,44.30
2018-07-01T19:03:31.541Z,44.70
2018-07-01T19:06:04.956Z,45.60
2018-07-01T19:11:11.203Z,46.20
2018-07-01T19:13:44.275Z,46.20
2018-07-01T19:16:17.651Z,46.20
2018-07-01T19:18:50.881Z,47.20
2018-07-01T19:21:23.895Z,47.50
2018-07-01T19:23:56.973Z,48.20
2018-07-01T19:26:30.123Z,48.70
2018-07-01T19:29:03.399Z,48.90
2018-07-01T19:31:36.657Z,49.80
2018-07-01T19:34:09.998Z,50.20
2018-07-01T19:36:43.341Z,50.20
2018-07-01T19:39:16.518Z,50.40
2018-07-01T19:41:49.546Z,51.00
2018-07-01T19:44:22.747Z,51.60
2018-07-01T19:46:56.099Z,51.90
2018-07-01T19:49:29.202Z,52.50
2018-07-01T19:52:02.443Z,52.50
2018-07-01T19:54:35.915Z,52.90
2018-07-01T19:57:09.371Z,53.60
2018-07-01T19:59:42.656Z,54.10
2018-07-01T20:02:16.123Z,54.60
2018-07-01T20:04:49.158Z,54.30
2018-07-01T20:07:22.380Z,54.30
2018-07-01T20:09:55.927Z,54.50
2018-07-01T20:12:29.549Z,54.70
2018-07-01T20:15:02.741Z,54.70
2018-07-01T20:17:35.967Z,55.80
2018-07-01T20:20:08.999Z,55.30
2018-07-01T20:22:42.094Z,56.00
2018-07-01T20:25:15.216Z,55.10
2018-07-01T20:27:48.608Z,54.80
2018-07-01T20:30:21.690Z,54.90
2018-07-01T20:32:55.132Z,55.10
2018-07-01T20:35:28.227Z,55.10
2018-07-01T20:38:01.261Z,55.70
2018-07-01T20:40:34.390Z,55.80
2018-07-01T20:43:07.413Z,55.80
2018-07-01T20:45:40.512Z,56.00
2018-07-01T20:48:13.606Z,56.40
2018-07-01T20:50:46.671Z,56.10
2018-07-01T20:53:19.722Z,56.50
2018-07-01T20:55:53.956Z,56.50
2018-07-01T20:58:27.013Z,56.80
2018-07-01T21:01:00.125Z,56.80
2018-07-01T21:03:33.322Z,56.80
2018-07-01T21:06:06.367Z,56.90
2018-07-01T21:08:39.434Z,56.90
2018-07-01T21:11:12.487Z,57.10
2018-07-01T21:13:45.627Z,57.20
2018-07-01T21:16:18.720Z,57.30
2018-07-01T21:18:51.755Z,57.30
2018-07-01T21:21:24.811Z,56.70
2018-07-01T21:23:57.898Z,57.10
2018-07-01T21:26:30.954Z,57.20
2018-07-01T21:29:04.114Z,57.10
2018-07-01T21:31:37.150Z,57.40
2018-07-01T21:34:10.207Z,57.70
2018-07-01T21:36:43.314Z,57.90
2018-07-01T21:39:16.354Z,57.80
2018-07-01T21:41:49.428Z,58.30
2018-07-01T21:44:22.510Z,58.60
2018-07-01T21:46:55.582Z,58.90
2018-07-01T21:49:28.627Z,59.20
2018-07-01T21:52:01.647Z,59.30
2018-07-01T21:54:34.843Z,59.40
2018-07-01T21:57:08.053Z,59.60
2018-07-01T21:59:41.120Z,59.70
2018-07-01T22:02:14.186Z,59.70
2018-07-01T22:04:47.298Z,59.90
2018-07-01T22:07:20.392Z,59.80
2018-07-01T22:09:53.480Z,60.00
2018-07-01T22:12:37.868Z,60.10
2018-07-01T22:15:28.920Z,60.00
2018-07-01T22:20:34.903Z,60.50
2018-07-01T22:23:07.928Z,60.40
2018-07-01T22:25:40.962Z,60.40
2018-07-01T22:28:14.007Z,60.50
2018-07-01T22:30:47.030Z,60.70
2018-07-01T22:33:20.131Z,60.80
2018-07-01T22:35:53.182Z,60.90
2018-07-01T22:38:26.256Z,61.00
2018-07-01T22:40:59.319Z,61.30
2018-07-01T22:43:32.382Z,61.20
2018-07-01T22:46:05.642Z,61.20
2018-07-01T22:48:39.487Z,61.20
2018-07-01T22:51:12.514Z,61.50
2018-07-01T22:53:45.554Z,61.70
2018-07-01T22:58:51.661Z,61.70
2018-07-01T23:01:24.935Z,62.10
2018-07-01T23:03:58.044Z,62.40
2018-07-01T23:06:31.096Z,62.50
2018-07-01T23:09:06.634Z,62.60
2018-07-01T23:11:39.677Z,62.70
2018-07-01T23:14:12.885Z,63.00
2018-07-01T23:16:45.999Z,63.40
2018-07-01T23:19:19.081Z,63.50
2018-07-01T23:21:52.108Z,63.40
2018-07-01T23:24:25.180Z,63.40
2018-07-01T23:26:58.255Z,63.40
2018-07-01T23:29:31.330Z,63.30
2018-07-01T23:32:04.383Z,63.30
2018-07-01T23:34:37.530Z,63.30
2018-07-01T23:37:10.573Z,63.30
2018-07-01T23:39:43.750Z,63.20
2018-07-01T23:42:16.885Z,63.30
2018-07-01T23:44:50.469Z,63.80
2018-07-01T23:47:23.558Z,64.00
2018-07-01T23:49:56.614Z,64.10
2018-07-01T23:52:29.629Z,64.20
2018-07-01T23:55:02.696Z,64.40
2018-07-01T23:57:35.741Z,64.50
